sensor_id;sensor_type;location;lat;lon;timestamp;P1;durP1;ratioP1;P2;durP2;ratioP2
63606;SDS011;51327;52.466;-1.938;2022-07-06T00:17:31;0.17;;;0.17;;
63606;SDS011;51327;52.466;-1.938;2022-07-06T00:23:00;0.20;;;0.20;;
63606;SDS011;51327;52.466;-1.938;2022-07-06T00:28:11;0.40;;;0.30;;
63606;SDS011;51327;52.466;-1.938;2022-07-06T00:31:44;0.57;;;0.30;;
63606;SDS011;51327;52.466;-1.938;2022-07-06T00:34:11;0.40;;;0.40;;
63606;SDS011;51327;52.466;-1.938;2022-07-06T00:36:42;0.80;;;0.40;;
63606;SDS011;51327;52.466;-1.938;2022-07-06T00:39:24;0.47;;;0.40;;
63606;SDS011;51327;52.466;-1.938;2022-07-06T00:44:55;0.75;;;0.35;;
63606;SDS011;51327;52.466;-1.938;2022-07-06T00:47:27;0.30;;;0.30;;
63606;SDS011;51327;52.466;-1.938;2022-07-06T00:50:09;0.70;;;0.50;;
63606;SDS011;51327;52.466;-1.938;2022-07-06T00:52:51;1.30;;;0.38;;
63606;SDS011;51327;52.466;-1.938;2022-07-06T00:55:38;0.40;;;0.40;;
63606;SDS011;51327;52.466;-1.938;2022-07-06T00:58:08;1.38;;;0.40;;
63606;SDS011;51327;52.466;-1.938;2022-07-06T01:00:40;1.00;;;0.40;;
63606;SDS011;51327;52.466;-1.938;2022-07-06T01:03:25;0.38;;;0.30;;
63606;SDS011;51327;52.466;-1.938;2022-07-06T01:06:03;0.47;;;0.47;;
63606;SDS011;51327;52.466;-1.938;2022-07-06T01:31:14;0.38;;;0.30;;
63606;SDS011;51327;52.466;-1.938;2022-07-06T01:33:45;0.50;;;0.30;;
63606;SDS011;51327;52.466;-1.938;2022-07-06T01:36:11;0.32;;;0.20;;
63606;SDS011;51327;52.466;-1.938;2022-07-06T01:38:50;0.28;;;0.28;;
63606;SDS011;51327;52.466;-1.938;2022-07-06T01:41:20;0.17;;;0.17;;
63606;SDS011;51327;52.466;-1.938;2022-07-06T01:43:49;0.20;;;0.15;;
63606;SDS011;51327;52.466;-1.938;2022-07-06T01:46:15;0.13;;;0.13;;
63606;SDS011;51327;52.466;-1.938;2022-07-06T01:48:41;0.25;;;0.20;;
63606;SDS011;51327;52.466;-1.938;2022-07-06T01:51:10;0.75;;;0.40;;
63606;SDS011;51327;52.466;-1.938;2022-07-06T01:53:39;0.20;;;0.20;;
63606;SDS011;51327;52.466;-1.938;2022-07-06T01:56:05;0.20;;;0.20;;
63606;SDS011;51327;52.466;-1.938;2022-07-06T01:58:31;0.30;;;0.30;;
63606;SDS011;51327;52.466;-1.938;2022-07-06T02:03:41;0.40;;;0.30;;
63606;SDS011;51327;52.466;-1.938;2022-07-06T02:06:09;0.30;;;0.30;;
63606;SDS011;51327;52.466;-1.938;2022-07-06T02:08:36;0.20;;;0.20;;
63606;SDS011;51327;52.466;-1.938;2022-07-06T02:11:03;0.20;;;0.20;;
63606;SDS011;51327;52.466;-1.938;2022-07-06T02:13:56;0.32;;;0.30;;
63606;SDS011;51327;52.466;-1.938;2022-07-06T02:17:02;0.20;;;0.20;;
63606;SDS011;51327;52.466;-1.938;2022-07-06T02:19:32;0.20;;;0.20;;
63606;SDS011;51327;52.466;-1.938;2022-07-06T02:21:58;0.60;;;0.30;;
63606;SDS011;51327;52.466;-1.938;2022-07-06T02:24:48;0.32;;;0.30;;
63606;SDS011;51327;52.466;-1.938;2022-07-06T02:28:14;0.47;;;0.30;;
63606;SDS011;51327;52.466;-1.938;2022-07-06T02:33:20;0.50;;;0.47;;
63606;SDS011;51327;52.466;-1.938;2022-07-06T02:54:46;0.30;;;0.30;;
63606;SDS011;51327;52.466;-1.938;2022-07-06T02:58:01;0.20;;;0.20;;
63606;SDS011;51327;52.466;-1.938;2022-07-06T03:03:57;0.28;;;0.22;;
63606;SDS011;51327;52.466;-1.938;2022-07-06T03:06:56;0.20;;;0.20;;
63606;SDS011;51327;52.466;-1.938;2022-07-06T04:15:47;0.22;;;0.22;;
63606;SDS011;51327;52.466;-1.938;2022-07-06T04:18:25;0.30;;;0.30;;
63606;SDS011;51327;52.466;-1.938;2022-07-06T04:21:29;0.10;;;0.10;;
63606;SDS011;51327;52.466;-1.938;2022-07-06T04:49:59;0.30;;;0.28;;
63606;SDS011;51327;52.466;-1.938;2022-07-06T04:53:23;0.25;;;0.25;;
63606;SDS011;51327;52.466;-1.938;2022-07-06T04:56:18;0.57;;;0.40;;
63606;SDS011;51327;52.466;-1.938;2022-07-06T04:58:49;0.52;;;0.35;;
63606;SDS011;51327;52.466;-1.938;2022-07-06T05:04:53;0.20;;;0.20;;
63606;SDS011;51327;52.466;-1.938;2022-07-06T05:08:45;0.30;;;0.30;;
63606;SDS011;51327;52.466;-1.938;2022-07-06T05:22:56;0.20;;;0.20;;
63606;SDS011;51327;52.466;-1.938;2022-07-06T05:26:12;0.10;;;0.10;;
63606;SDS011;51327;52.466;-1.938;2022-07-06T05:28:44;0.40;;;0.20;;
63606;SDS011;51327;52.466;-1.938;2022-07-06T05:49:25;0.20;;;0.20;;
63606;SDS011;51327;52.466;-1.938;2022-07-06T05:54:58;0.20;;;0.20;;
63606;SDS011;51327;52.466;-1.938;2022-07-06T05:57:38;0.43;;;0.30;;
63606;SDS011;51327;52.466;-1.938;2022-07-06T06:00:34;0.20;;;0.20;;
63606;SDS011;51327;52.466;-1.938;2022-07-06T06:03:57;0.35;;;0.30;;
63606;SDS011;51327;52.466;-1.938;2022-07-06T06:30:18;0.40;;;0.30;;
63606;SDS011;51327;52.466;-1.938;2022-07-06T06:32:47;0.90;;;0.25;;
63606;SDS011;51327;52.466;-1.938;2022-07-06T06:35:13;0.20;;;0.20;;
63606;SDS011;51327;52.466;-1.938;2022-07-06T06:38:13;0.40;;;0.30;;
63606;SDS011;51327;52.466;-1.938;2022-07-06T06:43:34;0.30;;;0.30;;
63606;SDS011;51327;52.466;-1.938;2022-07-06T06:46:25;0.22;;;0.20;;
63606;SDS011;51327;52.466;-1.938;2022-07-06T07:21:06;0.88;;;0.20;;
63606;SDS011;51327;52.466;-1.938;2022-07-06T07:44:35;0.40;;;0.20;;
63606;SDS011;51327;52.466;-1.938;2022-07-06T07:47:10;0.22;;;0.20;;
63606;SDS011;51327;52.466;-1.938;2022-07-06T07:49:36;0.10;;;0.10;;
63606;SDS011;51327;52.466;-1.938;2022-07-06T07:52:02;0.40;;;0.20;;
63606;SDS011;51327;52.466;-1.938;2022-07-06T07:54:32;0.20;;;0.20;;
63606;SDS011;51327;52.466;-1.938;2022-07-06T07:56:58;0.15;;;0.15;;
63606;SDS011;51327;52.466;-1.938;2022-07-06T07:59:24;0.20;;;0.20;;
63606;SDS011;51327;52.466;-1.938;2022-07-06T08:01:51;0.75;;;0.40;;
63606;SDS011;51327;52.466;-1.938;2022-07-06T08:04:17;0.30;;;0.20;;
63606;SDS011;51327;52.466;-1.938;2022-07-06T08:06:46;0.30;;;0.20;;
63606;SDS011;51327;52.466;-1.938;2022-07-06T08:09:13;0.35;;;0.30;;
63606;SDS011;51327;52.466;-1.938;2022-07-06T08:11:40;0.50;;;0.30;;
63606;SDS011;51327;52.466;-1.938;2022-07-06T08:14:06;0.20;;;0.20;;
63606;SDS011;51327;52.466;-1.938;2022-07-06T08:16:34;0.30;;;0.20;;
63606;SDS011;51327;52.466;-1.938;2022-07-06T08:19:01;0.32;;;0.22;;
63606;SDS011;51327;52.466;-1.938;2022-07-06T08:21:27;0.32;;;0.32;;
63606;SDS011;51327;52.466;-1.938;2022-07-06T08:23:55;0.47;;;0.40;;
63606;SDS011;51327;52.466;-1.938;2022-07-06T08:26:23;0.20;;;0.20;;
63606;SDS011;51327;52.466;-1.938;2022-07-06T08:28:51;0.20;;;0.20;;
63606;SDS011;51327;52.466;-1.938;2022-07-06T08:31:20;0.22;;;0.17;;
63606;SDS011;51327;52.466;-1.938;2022-07-06T08:33:45;0.22;;;0.22;;
63606;SDS011;51327;52.466;-1.938;2022-07-06T08:36:14;0.15;;;0.15;;
63606;SDS011;51327;52.466;-1.938;2022-07-06T08:38:42;0.20;;;0.20;;
63606;SDS011;51327;52.466;-1.938;2022-07-06T08:41:07;0.55;;;0.20;;
63606;SDS011;51327;52.466;-1.938;2022-07-06T08:43:37;0.20;;;0.20;;
63606;SDS011;51327;52.466;-1.938;2022-07-06T08:46:07;0.32;;;0.20;;
63606;SDS011;51327;52.466;-1.938;2022-07-06T08:48:37;0.20;;;0.20;;
63606;SDS011;51327;52.466;-1.938;2022-07-06T08:51:05;0.10;;;0.10;;
63606;SDS011;51327;52.466;-1.938;2022-07-06T08:53:33;0.40;;;0.20;;
63606;SDS011;51327;52.466;-1.938;2022-07-06T08:56:00;0.20;;;0.10;;
63606;SDS011;51327;52.466;-1.938;2022-07-06T08:58:26;0.10;;;0.10;;
63606;SDS011;51327;52.466;-1.938;2022-07-06T09:00:55;0.17;;;0.17;;
63606;SDS011;51327;52.466;-1.938;2022-07-06T09:03:21;0.28;;;0.20;;
63606;SDS011;51327;52.466;-1.938;2022-07-06T09:05:48;0.40;;;0.30;;
63606;SDS011;51327;52.466;-1.938;2022-07-06T09:08:18;0.10;;;0.10;;
63606;SDS011;51327;52.466;-1.938;2022-07-06T09:10:47;0.10;;;0.10;;
63606;SDS011;51327;52.466;-1.938;2022-07-06T09:13:14;0.10;;;0.10;;
63606;SDS011;51327;52.466;-1.938;2022-07-06T09:15:45;0.10;;;0.10;;
63606;SDS011;51327;52.466;-1.938;2022-07-06T09:18:25;0.10;;;0.10;;
63606;SDS011;51327;52.466;-1.938;2022-07-06T09:20:53;0.10;;;0.10;;
63606;SDS011;51327;52.466;-1.938;2022-07-06T09:23:22;0.90;;;0.20;;
63606;SDS011;51327;52.466;-1.938;2022-07-06T09:25:49;0.15;;;0.10;;
63606;SDS011;51327;52.466;-1.938;2022-07-06T09:28:23;0.00;;;0.00;;
63606;SDS011;51327;52.466;-1.938;2022-07-06T09:31:32;0.20;;;0.10;;
63606;SDS011;51327;52.466;-1.938;2022-07-06T09:34:04;0.10;;;0.10;;
63606;SDS011;51327;52.466;-1.938;2022-07-06T09:36:45;0.08;;;0.08;;
63606;SDS011;51327;52.466;-1.938;2022-07-06T09:39:26;0.00;;;0.00;;
63606;SDS011;51327;52.466;-1.938;2022-07-06T09:42:00;0.22;;;0.20;;
63606;SDS011;51327;52.466;-1.938;2022-07-06T09:44:40;0.00;;;0.00;;
63606;SDS011;51327;52.466;-1.938;2022-07-06T09:47:11;0.30;;;0.10;;
63606;SDS011;51327;52.466;-1.938;2022-07-06T09:49:47;0.20;;;0.10;;
63606;SDS011;51327;52.466;-1.938;2022-07-06T09:52:13;0.30;;;0.20;;
63606;SDS011;51327;52.466;-1.938;2022-07-06T09:54:39;0.10;;;0.10;;
63606;SDS011;51327;52.466;-1.938;2022-07-06T09:57:07;0.13;;;0.10;;
63606;SDS011;51327;52.466;-1.938;2022-07-06T09:59:36;0.20;;;0.20;;
63606;SDS011;51327;52.466;-1.938;2022-07-06T10:02:05;0.10;;;0.08;;
63606;SDS011;51327;52.466;-1.938;2022-07-06T10:04:32;0.10;;;0.10;;
63606;SDS011;51327;52.466;-1.938;2022-07-06T10:06:58;0.28;;;0.20;;
63606;SDS011;51327;52.466;-1.938;2022-07-06T10:09:27;0.30;;;0.10;;
63606;SDS011;51327;52.466;-1.938;2022-07-06T10:11:58;0.30;;;0.20;;
63606;SDS011;51327;52.466;-1.938;2022-07-06T10:14:26;0.10;;;0.10;;
63606;SDS011;51327;52.466;-1.938;2022-07-06T10:16:56;0.20;;;0.20;;
63606;SDS011;51327;52.466;-1.938;2022-07-06T10:19:26;0.30;;;0.20;;
63606;SDS011;51327;52.466;-1.938;2022-07-06T10:21:53;0.38;;;0.28;;
63606;SDS011;51327;52.466;-1.938;2022-07-06T10:24:19;0.00;;;0.00;;
63606;SDS011;51327;52.466;-1.938;2022-07-06T10:26:48;0.10;;;0.00;;
63606;SDS011;51327;52.466;-1.938;2022-07-06T10:29:14;0.00;;;0.00;;
63606;SDS011;51327;52.466;-1.938;2022-07-06T10:31:42;0.05;;;0.05;;
63606;SDS011;51327;52.466;-1.938;2022-07-06T10:34:12;0.25;;;0.10;;
63606;SDS011;51327;52.466;-1.938;2022-07-06T10:36:42;0.20;;;0.17;;
63606;SDS011;51327;52.466;-1.938;2022-07-06T10:39:11;0.20;;;0.20;;
63606;SDS011;51327;52.466;-1.938;2022-07-06T10:41:57;0.10;;;0.10;;
63606;SDS011;51327;52.466;-1.938;2022-07-06T10:44:26;1.02;;;0.10;;
63606;SDS011;51327;52.466;-1.938;2022-07-06T10:46:57;0.10;;;0.10;;
63606;SDS011;51327;52.466;-1.938;2022-07-06T10:49:26;0.10;;;0.10;;
63606;SDS011;51327;52.466;-1.938;2022-07-06T10:51:56;0.13;;;0.10;;
63606;SDS011;51327;52.466;-1.938;2022-07-06T10:54:23;0.03;;;0.00;;
63606;SDS011;51327;52.466;-1.938;2022-07-06T10:56:50;0.00;;;0.00;;
63606;SDS011;51327;52.466;-1.938;2022-07-06T11:04:45;0.05;;;0.00;;
63606;SDS011;51327;52.466;-1.938;2022-07-06T11:07:14;0.08;;;0.08;;
63606;SDS011;51327;52.466;-1.938;2022-07-06T11:10:02;0.10;;;0.10;;
63606;SDS011;51327;52.466;-1.938;2022-07-06T11:12:29;0.63;;;0.10;;
63606;SDS011;51327;52.466;-1.938;2022-07-06T11:14:57;0.03;;;0.00;;
63606;SDS011;51327;52.466;-1.938;2022-07-06T11:17:27;0.17;;;0.10;;
63606;SDS011;51327;52.466;-1.938;2022-07-06T11:19:56;0.10;;;0.10;;
63606;SDS011;51327;52.466;-1.938;2022-07-06T11:22:26;0.10;;;0.10;;
63606;SDS011;51327;52.466;-1.938;2022-07-06T11:24:57;0.00;;;0.00;;
63606;SDS011;51327;52.466;-1.938;2022-07-06T11:27:24;0.20;;;0.10;;
63606;SDS011;51327;52.466;-1.938;2022-07-06T11:29:52;0.00;;;0.00;;
63606;SDS011;51327;52.466;-1.938;2022-07-06T11:32:25;0.10;;;0.00;;
63606;SDS011;51327;52.466;-1.938;2022-07-06T11:34:54;0.00;;;0.00;;
63606;SDS011;51327;52.466;-1.938;2022-07-06T11:37:21;0.00;;;0.00;;
63606;SDS011;51327;52.466;-1.938;2022-07-06T11:39:50;0.00;;;0.00;;
63606;SDS011;51327;52.466;-1.938;2022-07-06T11:42:18;0.00;;;0.00;;
63606;SDS011;51327;52.466;-1.938;2022-07-06T11:44:46;0.05;;;0.05;;
63606;SDS011;51327;52.466;-1.938;2022-07-06T11:47:14;0.10;;;0.10;;
63606;SDS011;51327;52.466;-1.938;2022-07-06T11:49:42;0.10;;;0.10;;
63606;SDS011;51327;52.466;-1.938;2022-07-06T11:52:12;0.30;;;0.10;;
63606;SDS011;51327;52.466;-1.938;2022-07-06T11:54:41;0.43;;;0.15;;
63606;SDS011;51327;52.466;-1.938;2022-07-06T11:57:10;0.03;;;0.03;;
63606;SDS011;51327;52.466;-1.938;2022-07-06T11:59:38;0.15;;;0.10;;
63606;SDS011;51327;52.466;-1.938;2022-07-06T12:02:06;0.00;;;0.00;;
63606;SDS011;51327;52.466;-1.938;2022-07-06T12:04:36;0.00;;;0.00;;
63606;SDS011;51327;52.466;-1.938;2022-07-06T12:07:12;0.52;;;0.03;;
63606;SDS011;51327;52.466;-1.938;2022-07-06T12:09:42;0.10;;;0.00;;
63606;SDS011;51327;52.466;-1.938;2022-07-06T12:12:11;0.25;;;0.00;;
63606;SDS011;51327;52.466;-1.938;2022-07-06T12:14:40;0.20;;;0.10;;
63606;SDS011;51327;52.466;-1.938;2022-07-06T12:17:09;0.10;;;0.00;;
63606;SDS011;51327;52.466;-1.938;2022-07-06T12:19:39;0.00;;;0.00;;
63606;SDS011;51327;52.466;-1.938;2022-07-06T12:22:08;0.08;;;0.08;;
63606;SDS011;51327;52.466;-1.938;2022-07-06T12:24:37;0.10;;;0.00;;
63606;SDS011;51327;52.466;-1.938;2022-07-06T12:29:47;0.10;;;0.10;;
63606;SDS011;51327;52.466;-1.938;2022-07-06T12:32:16;0.15;;;0.10;;
63606;SDS011;51327;52.466;-1.938;2022-07-06T12:34:44;0.10;;;0.10;;
63606;SDS011;51327;52.466;-1.938;2022-07-06T12:37:10;0.20;;;0.10;;
63606;SDS011;51327;52.466;-1.938;2022-07-06T12:39:41;0.10;;;0.00;;
63606;SDS011;51327;52.466;-1.938;2022-07-06T12:42:08;0.03;;;0.03;;
63606;SDS011;51327;52.466;-1.938;2022-07-06T12:44:41;0.20;;;0.20;;
63606;SDS011;51327;52.466;-1.938;2022-07-06T12:47:11;0.10;;;0.10;;
63606;SDS011;51327;52.466;-1.938;2022-07-06T12:49:39;0.13;;;0.10;;
63606;SDS011;51327;52.466;-1.938;2022-07-06T12:54:45;0.10;;;0.10;;
63606;SDS011;51327;52.466;-1.938;2022-07-06T12:57:18;0.00;;;0.00;;
63606;SDS011;51327;52.466;-1.938;2022-07-06T13:02:25;0.10;;;0.10;;
63606;SDS011;51327;52.466;-1.938;2022-07-06T13:04:58;0.00;;;0.00;;
63606;SDS011;51327;52.466;-1.938;2022-07-06T13:07:32;0.00;;;0.00;;
63606;SDS011;51327;52.466;-1.938;2022-07-06T13:10:05;0.47;;;0.20;;
63606;SDS011;51327;52.466;-1.938;2022-07-06T13:12:33;0.28;;;0.17;;
63606;SDS011;51327;52.466;-1.938;2022-07-06T13:14:59;0.40;;;0.20;;
63606;SDS011;51327;52.466;-1.938;2022-07-06T13:17:28;0.05;;;0.05;;
63606;SDS011;51327;52.466;-1.938;2022-07-06T13:19:56;0.15;;;0.10;;
63606;SDS011;51327;52.466;-1.938;2022-07-06T13:22:22;0.30;;;0.20;;
63606;SDS011;51327;52.466;-1.938;2022-07-06T13:24:47;0.25;;;0.20;;
63606;SDS011;51327;52.466;-1.938;2022-07-06T13:27:15;0.30;;;0.20;;
63606;SDS011;51327;52.466;-1.938;2022-07-06T13:29:43;0.40;;;0.20;;
63606;SDS011;51327;52.466;-1.938;2022-07-06T13:32:11;0.60;;;0.30;;
63606;SDS011;51327;52.466;-1.938;2022-07-06T13:34:39;0.60;;;0.25;;
63606;SDS011;51327;52.466;-1.938;2022-07-06T13:37:07;0.65;;;0.20;;
63606;SDS011;51327;52.466;-1.938;2022-07-06T13:39:33;0.25;;;0.10;;
63606;SDS011;51327;52.466;-1.938;2022-07-06T13:41:59;0.22;;;0.20;;
63606;SDS011;51327;52.466;-1.938;2022-07-06T13:44:27;0.20;;;0.17;;
63606;SDS011;51327;52.466;-1.938;2022-07-06T13:46:56;0.63;;;0.20;;
63606;SDS011;51327;52.466;-1.938;2022-07-06T13:49:25;0.13;;;0.10;;
63606;SDS011;51327;52.466;-1.938;2022-07-06T13:51:53;0.20;;;0.20;;
63606;SDS011;51327;52.466;-1.938;2022-07-06T13:54:22;0.20;;;0.20;;
63606;SDS011;51327;52.466;-1.938;2022-07-06T13:56:51;0.80;;;0.30;;
63606;SDS011;51327;52.466;-1.938;2022-07-06T13:59:18;0.20;;;0.20;;
63606;SDS011;51327;52.466;-1.938;2022-07-06T14:01:46;0.20;;;0.15;;
63606;SDS011;51327;52.466;-1.938;2022-07-06T14:04:11;0.30;;;0.30;;
63606;SDS011;51327;52.466;-1.938;2022-07-06T14:06:38;0.40;;;0.20;;
63606;SDS011;51327;52.466;-1.938;2022-07-06T14:09:06;0.25;;;0.20;;
63606;SDS011;51327;52.466;-1.938;2022-07-06T14:11:34;0.10;;;0.10;;
63606;SDS011;51327;52.466;-1.938;2022-07-06T14:14:01;0.50;;;0.20;;
63606;SDS011;51327;52.466;-1.938;2022-07-06T14:16:29;0.50;;;0.10;;
63606;SDS011;51327;52.466;-1.938;2022-07-06T14:19:00;0.30;;;0.20;;
63606;SDS011;51327;52.466;-1.938;2022-07-06T14:21:28;0.22;;;0.20;;
63606;SDS011;51327;52.466;-1.938;2022-07-06T14:23:56;0.10;;;0.10;;
63606;SDS011;51327;52.466;-1.938;2022-07-06T14:26:22;0.17;;;0.10;;
63606;SDS011;51327;52.466;-1.938;2022-07-06T14:28:47;0.10;;;0.10;;
63606;SDS011;51327;52.466;-1.938;2022-07-06T14:31:15;0.35;;;0.20;;
63606;SDS011;51327;52.466;-1.938;2022-07-06T14:33:43;0.50;;;0.20;;
63606;SDS011;51327;52.466;-1.938;2022-07-06T14:36:11;0.20;;;0.10;;
63606;SDS011;51327;52.466;-1.938;2022-07-06T14:38:39;0.10;;;0.10;;
63606;SDS011;51327;52.466;-1.938;2022-07-06T14:41:04;0.03;;;0.03;;
63606;SDS011;51327;52.466;-1.938;2022-07-06T14:43:31;0.00;;;0.00;;
63606;SDS011;51327;52.466;-1.938;2022-07-06T14:45:59;0.38;;;0.20;;
63606;SDS011;51327;52.466;-1.938;2022-07-06T14:48:26;0.00;;;0.00;;
63606;SDS011;51327;52.466;-1.938;2022-07-06T14:50:54;0.52;;;0.25;;
63606;SDS011;51327;52.466;-1.938;2022-07-06T14:53:19;0.00;;;0.00;;
63606;SDS011;51327;52.466;-1.938;2022-07-06T14:55:48;0.10;;;0.10;;
63606;SDS011;51327;52.466;-1.938;2022-07-06T14:58:15;0.10;;;0.10;;
63606;SDS011;51327;52.466;-1.938;2022-07-06T15:00:45;0.00;;;0.00;;
63606;SDS011;51327;52.466;-1.938;2022-07-06T15:03:13;0.20;;;0.20;;
63606;SDS011;51327;52.466;-1.938;2022-07-06T15:05:41;0.10;;;0.10;;
63606;SDS011;51327;52.466;-1.938;2022-07-06T15:08:14;0.00;;;0.00;;
63606;SDS011;51327;52.466;-1.938;2022-07-06T15:10:42;0.17;;;0.10;;
63606;SDS011;51327;52.466;-1.938;2022-07-06T15:13:10;0.08;;;0.08;;
63606;SDS011;51327;52.466;-1.938;2022-07-06T15:15:38;0.10;;;0.10;;
63606;SDS011;51327;52.466;-1.938;2022-07-06T15:18:06;0.15;;;0.10;;
63606;SDS011;51327;52.466;-1.938;2022-07-06T15:20:33;0.10;;;0.10;;
63606;SDS011;51327;52.466;-1.938;2022-07-06T15:23:01;0.70;;;0.20;;
63606;SDS011;51327;52.466;-1.938;2022-07-06T15:25:29;0.10;;;0.10;;
63606;SDS011;51327;52.466;-1.938;2022-07-06T15:27:57;0.00;;;0.00;;
63606;SDS011;51327;52.466;-1.938;2022-07-06T15:30:24;0.10;;;0.10;;
63606;SDS011;51327;52.466;-1.938;2022-07-06T15:32:52;0.10;;;0.10;;
63606;SDS011;51327;52.466;-1.938;2022-07-06T15:35:20;0.20;;;0.15;;
63606;SDS011;51327;52.466;-1.938;2022-07-06T15:37:47;0.00;;;0.00;;
63606;SDS011;51327;52.466;-1.938;2022-07-06T15:40:18;0.10;;;0.10;;
63606;SDS011;51327;52.466;-1.938;2022-07-06T15:42:52;0.00;;;0.00;;
63606;SDS011;51327;52.466;-1.938;2022-07-06T15:45:21;0.10;;;0.10;;
63606;SDS011;51327;52.466;-1.938;2022-07-06T15:47:52;0.15;;;0.10;;
63606;SDS011;51327;52.466;-1.938;2022-07-06T15:50:20;0.47;;;0.20;;
63606;SDS011;51327;52.466;-1.938;2022-07-06T15:52:48;0.60;;;0.40;;
63606;SDS011;51327;52.466;-1.938;2022-07-06T15:55:15;0.52;;;0.20;;
63606;SDS011;51327;52.466;-1.938;2022-07-06T15:57:43;0.17;;;0.10;;
63606;SDS011;51327;52.466;-1.938;2022-07-06T16:00:11;0.10;;;0.10;;
63606;SDS011;51327;52.466;-1.938;2022-07-06T16:02:39;0.00;;;0.00;;
63606;SDS011;51327;52.466;-1.938;2022-07-06T16:05:05;0.63;;;0.17;;
63606;SDS011;51327;52.466;-1.938;2022-07-06T16:07:31;0.15;;;0.10;;
63606;SDS011;51327;52.466;-1.938;2022-07-06T16:09:59;0.77;;;0.20;;
63606;SDS011;51327;52.466;-1.938;2022-07-06T16:12:27;0.03;;;0.03;;
63606;SDS011;51327;52.466;-1.938;2022-07-06T16:14:55;0.00;;;0.00;;
63606;SDS011;51327;52.466;-1.938;2022-07-06T16:17:24;0.82;;;0.10;;
63606;SDS011;51327;52.466;-1.938;2022-07-06T16:19:49;0.10;;;0.10;;
63606;SDS011;51327;52.466;-1.938;2022-07-06T16:22:15;0.10;;;0.10;;
63606;SDS011;51327;52.466;-1.938;2022-07-06T16:24:43;0.10;;;0.10;;
63606;SDS011;51327;52.466;-1.938;2022-07-06T16:27:10;0.00;;;0.00;;
63606;SDS011;51327;52.466;-1.938;2022-07-06T16:29:38;0.00;;;0.00;;
63606;SDS011;51327;52.466;-1.938;2022-07-06T16:32:06;0.43;;;0.10;;
63606;SDS011;51327;52.466;-1.938;2022-07-06T16:34:34;0.10;;;0.10;;
63606;SDS011;51327;52.466;-1.938;2022-07-06T16:36:59;0.55;;;0.15;;
63606;SDS011;51327;52.466;-1.938;2022-07-06T16:39:25;0.00;;;0.00;;
63606;SDS011;51327;52.466;-1.938;2022-07-06T16:41:53;0.10;;;0.10;;
63606;SDS011;51327;52.466;-1.938;2022-07-06T16:44:20;0.40;;;0.10;;
63606;SDS011;51327;52.466;-1.938;2022-07-06T16:46:48;0.10;;;0.10;;
63606;SDS011;51327;52.466;-1.938;2022-07-06T16:49:16;0.28;;;0.13;;
63606;SDS011;51327;52.466;-1.938;2022-07-06T16:51:44;0.20;;;0.10;;
63606;SDS011;51327;52.466;-1.938;2022-07-06T16:54:11;0.28;;;0.10;;
63606;SDS011;51327;52.466;-1.938;2022-07-06T16:56:39;0.20;;;0.10;;
63606;SDS011;51327;52.466;-1.938;2022-07-06T16:59:05;0.00;;;0.00;;
63606;SDS011;51327;52.466;-1.938;2022-07-06T17:01:30;0.17;;;0.08;;
63606;SDS011;51327;52.466;-1.938;2022-07-06T17:03:58;0.10;;;0.10;;
63606;SDS011;51327;52.466;-1.938;2022-07-06T17:06:24;0.20;;;0.10;;
63606;SDS011;51327;52.466;-1.938;2022-07-06T17:08:52;0.17;;;0.13;;
63606;SDS011;51327;52.466;-1.938;2022-07-06T17:11:20;0.52;;;0.20;;
63606;SDS011;51327;52.466;-1.938;2022-07-06T17:13:45;0.30;;;0.10;;
63606;SDS011;51327;52.466;-1.938;2022-07-06T17:16:12;0.10;;;0.00;;
63606;SDS011;51327;52.466;-1.938;2022-07-06T17:18:40;0.00;;;0.00;;
63606;SDS011;51327;52.466;-1.938;2022-07-06T17:21:08;0.30;;;0.22;;
63606;SDS011;51327;52.466;-1.938;2022-07-06T17:23:34;0.28;;;0.10;;
63606;SDS011;51327;52.466;-1.938;2022-07-06T17:26:00;0.05;;;0.00;;
63606;SDS011;51327;52.466;-1.938;2022-07-06T17:28:28;0.32;;;0.20;;
63606;SDS011;51327;52.466;-1.938;2022-07-06T17:30:54;0.32;;;0.20;;
63606;SDS011;51327;52.466;-1.938;2022-07-06T17:33:20;0.15;;;0.15;;
63606;SDS011;51327;52.466;-1.938;2022-07-06T17:35:50;0.10;;;0.10;;
63606;SDS011;51327;52.466;-1.938;2022-07-06T17:38:17;0.00;;;0.00;;
63606;SDS011;51327;52.466;-1.938;2022-07-06T17:40:43;0.10;;;0.10;;
63606;SDS011;51327;52.466;-1.938;2022-07-06T17:43:11;0.17;;;0.10;;
63606;SDS011;51327;52.466;-1.938;2022-07-06T17:45:38;0.30;;;0.20;;
63606;SDS011;51327;52.466;-1.938;2022-07-06T17:48:03;0.32;;;0.20;;
63606;SDS011;51327;52.466;-1.938;2022-07-06T17:50:31;0.00;;;0.00;;
63606;SDS011;51327;52.466;-1.938;2022-07-06T17:53:01;0.20;;;0.10;;
63606;SDS011;51327;52.466;-1.938;2022-07-06T17:55:29;0.00;;;0.00;;
63606;SDS011;51327;52.466;-1.938;2022-07-06T17:57:57;0.47;;;0.20;;
63606;SDS011;51327;52.466;-1.938;2022-07-06T18:00:25;0.00;;;0.00;;
63606;SDS011;51327;52.466;-1.938;2022-07-06T18:02:52;0.10;;;0.10;;
63606;SDS011;51327;52.466;-1.938;2022-07-06T18:05:20;0.10;;;0.08;;
63606;SDS011;51327;52.466;-1.938;2022-07-06T18:07:50;0.40;;;0.20;;
63606;SDS011;51327;52.466;-1.938;2022-07-06T18:10:18;0.13;;;0.10;;
63606;SDS011;51327;52.466;-1.938;2022-07-06T18:12:46;0.20;;;0.20;;
63606;SDS011;51327;52.466;-1.938;2022-07-06T18:15:14;0.08;;;0.08;;
63606;SDS011;51327;52.466;-1.938;2022-07-06T18:17:43;0.25;;;0.13;;
63606;SDS011;51327;52.466;-1.938;2022-07-06T18:20:09;0.10;;;0.10;;
63606;SDS011;51327;52.466;-1.938;2022-07-06T18:22:35;0.47;;;0.30;;
63606;SDS011;51327;52.466;-1.938;2022-07-06T18:25:02;0.20;;;0.10;;
63606;SDS011;51327;52.466;-1.938;2022-07-06T18:27:30;0.20;;;0.10;;
63606;SDS011;51327;52.466;-1.938;2022-07-06T18:29:58;0.10;;;0.10;;
63606;SDS011;51327;52.466;-1.938;2022-07-06T18:32:26;0.20;;;0.10;;
63606;SDS011;51327;52.466;-1.938;2022-07-06T18:34:53;0.43;;;0.10;;
63606;SDS011;51327;52.466;-1.938;2022-07-06T18:37:19;0.30;;;0.20;;
63606;SDS011;51327;52.466;-1.938;2022-07-06T18:39:45;0.10;;;0.10;;
63606;SDS011;51327;52.466;-1.938;2022-07-06T18:42:13;0.10;;;0.03;;
63606;SDS011;51327;52.466;-1.938;2022-07-06T18:44:40;0.10;;;0.10;;
63606;SDS011;51327;52.466;-1.938;2022-07-06T18:47:08;0.45;;;0.20;;
63606;SDS011;51327;52.466;-1.938;2022-07-06T18:49:36;1.55;;;0.28;;
63606;SDS011;51327;52.466;-1.938;2022-07-06T18:52:02;0.30;;;0.30;;
63606;SDS011;51327;52.466;-1.938;2022-07-06T18:54:27;0.60;;;0.20;;
63606;SDS011;51327;52.466;-1.938;2022-07-06T18:56:55;0.22;;;0.17;;
63606;SDS011;51327;52.466;-1.938;2022-07-06T18:59:23;0.10;;;0.10;;
63606;SDS011;51327;52.466;-1.938;2022-07-06T19:01:48;0.43;;;0.20;;
63606;SDS011;51327;52.466;-1.938;2022-07-06T19:04:14;0.63;;;0.20;;
63606;SDS011;51327;52.466;-1.938;2022-07-06T19:06:42;0.30;;;0.20;;
63606;SDS011;51327;52.466;-1.938;2022-07-06T19:09:10;0.52;;;0.20;;
63606;SDS011;51327;52.466;-1.938;2022-07-06T19:11:36;0.10;;;0.10;;
63606;SDS011;51327;52.466;-1.938;2022-07-06T19:14:03;0.10;;;0.10;;
63606;SDS011;51327;52.466;-1.938;2022-07-06T19:16:31;0.28;;;0.17;;
63606;SDS011;51327;52.466;-1.938;2022-07-06T19:18:57;0.17;;;0.10;;
63606;SDS011;51327;52.466;-1.938;2022-07-06T19:21:22;0.57;;;0.10;;
63606;SDS011;51327;52.466;-1.938;2022-07-06T19:23:50;0.13;;;0.13;;
63606;SDS011;51327;52.466;-1.938;2022-07-06T19:26:18;0.10;;;0.10;;
63606;SDS011;51327;52.466;-1.938;2022-07-06T19:28:45;0.20;;;0.20;;
63606;SDS011;51327;52.466;-1.938;2022-07-06T19:31:13;0.13;;;0.13;;
63606;SDS011;51327;52.466;-1.938;2022-07-06T19:33:41;0.30;;;0.28;;
63606;SDS011;51327;52.466;-1.938;2022-07-06T19:36:08;0.20;;;0.20;;
63606;SDS011;51327;52.466;-1.938;2022-07-06T19:38:36;0.22;;;0.22;;
63606;SDS011;51327;52.466;-1.938;2022-07-06T19:41:04;0.15;;;0.13;;
63606;SDS011;51327;52.466;-1.938;2022-07-06T19:43:31;0.28;;;0.28;;
63606;SDS011;51327;52.466;-1.938;2022-07-06T19:45:57;0.28;;;0.20;;
63606;SDS011;51327;52.466;-1.938;2022-07-06T19:48:22;0.28;;;0.20;;
63606;SDS011;51327;52.466;-1.938;2022-07-06T19:50:50;0.10;;;0.10;;